sensor_id;sensor_type;location;lat;lon;timestamp;P1;durP1;ratioP1;P2;durP2;ratioP2
9098;SDS011;4585;51.414;6.776;2022-07-10T00:00:28;3.50;;;1.30;;
9098;SDS011;4585;51.414;6.776;2022-07-10T00:02:55;4.43;;;1.10;;
9098;SDS011;4585;51.414;6.776;2022-07-10T00:05:21;3.20;;;1.20;;
9098;SDS011;4585;51.414;6.776;2022-07-10T00:07:47;1.70;;;1.20;;
9098;SDS011;4585;51.414;6.776;2022-07-10T00:10:14;2.67;;;1.23;;
9098;SDS011;4585;51.414;6.776;2022-07-10T00:12:41;1.80;;;1.20;;
9098;SDS011;4585;51.414;6.776;2022-07-10T00:15:06;2.33;;;1.37;;
9098;SDS011;4585;51.414;6.776;2022-07-10T00:17:32;3.43;;;1.20;;
9098;SDS011;4585;51.414;6.776;2022-07-10T00:19:58;2.37;;;1.03;;
9098;SDS011;4585;51.414;6.776;2022-07-10T00:22:24;2.37;;;1.30;;
9098;SDS011;4585;51.414;6.776;2022-07-10T00:24:50;5.20;;;1.70;;
9098;SDS011;4585;51.414;6.776;2022-07-10T00:27:16;4.13;;;1.40;;
9098;SDS011;4585;51.414;6.776;2022-07-10T00:29:43;2.27;;;1.30;;
9098;SDS011;4585;51.414;6.776;2022-07-10T00:32:08;4.40;;;1.43;;
9098;SDS011;4585;51.414;6.776;2022-07-10T00:34:34;4.97;;;1.40;;
9098;SDS011;4585;51.414;6.776;2022-07-10T00:37:01;4.37;;;1.70;;
9098;SDS011;4585;51.414;6.776;2022-07-10T00:39:28;4.60;;;1.40;;
9098;SDS011;4585;51.414;6.776;2022-07-10T00:41:54;2.13;;;1.20;;
9098;SDS011;4585;51.414;6.776;2022-07-10T00:44:20;3.43;;;1.10;;
9098;SDS011;4585;51.414;6.776;2022-07-10T00:46:46;5.97;;;1.47;;
9098;SDS011;4585;51.414;6.776;2022-07-10T00:49:11;1.83;;;1.10;;
9098;SDS011;4585;51.414;6.776;2022-07-10T00:51:37;3.03;;;1.30;;
9098;SDS011;4585;51.414;6.776;2022-07-10T00:54:04;5.63;;;1.47;;
9098;SDS011;4585;51.414;6.776;2022-07-10T00:56:30;1.87;;;1.17;;
9098;SDS011;4585;51.414;6.776;2022-07-10T00:58:56;1.97;;;1.33;;
9098;SDS011;4585;51.414;6.776;2022-07-10T01:01:22;2.23;;;1.20;;
9098;SDS011;4585;51.414;6.776;2022-07-10T01:03:48;6.17;;;1.50;;
9098;SDS011;4585;51.414;6.776;2022-07-10T01:06:15;5.17;;;1.60;;
9098;SDS011;4585;51.414;6.776;2022-07-10T01:08:41;4.17;;;1.10;;
9098;SDS011;4585;51.414;6.776;2022-07-10T01:11:08;2.87;;;1.50;;
9098;SDS011;4585;51.414;6.776;2022-07-10T01:13:35;3.03;;;1.40;;
9098;SDS011;4585;51.414;6.776;2022-07-10T01:16:01;3.30;;;1.47;;
9098;SDS011;4585;51.414;6.776;2022-07-10T01:18:27;5.30;;;1.70;;
9098;SDS011;4585;51.414;6.776;2022-07-10T01:20:54;3.77;;;1.30;;
9098;SDS011;4585;51.414;6.776;2022-07-10T01:23:21;3.73;;;1.70;;
9098;SDS011;4585;51.414;6.776;2022-07-10T01:25:47;3.23;;;1.33;;
9098;SDS011;4585;51.414;6.776;2022-07-10T01:28:13;2.27;;;1.27;;
9098;SDS011;4585;51.414;6.776;2022-07-10T01:30:39;3.03;;;1.30;;
9098;SDS011;4585;51.414;6.776;2022-07-10T01:33:06;2.67;;;1.10;;
9098;SDS011;4585;51.414;6.776;2022-07-10T01:35:31;4.23;;;1.50;;
9098;SDS011;4585;51.414;6.776;2022-07-10T01:37:57;4.30;;;1.20;;
9098;SDS011;4585;51.414;6.776;2022-07-10T01:40:23;4.80;;;1.70;;
9098;SDS011;4585;51.414;6.776;2022-07-10T01:42:49;3.87;;;1.30;;
9098;SDS011;4585;51.414;6.776;2022-07-10T01:45:16;7.53;;;1.50;;
9098;SDS011;4585;51.414;6.776;2022-07-10T01:47:42;3.97;;;1.37;;
9098;SDS011;4585;51.414;6.776;2022-07-10T01:50:09;4.67;;;1.90;;
9098;SDS011;4585;51.414;6.776;2022-07-10T01:52:35;1.63;;;1.00;;
9098;SDS011;4585;51.414;6.776;2022-07-10T01:55:01;3.00;;;1.10;;
9098;SDS011;4585;51.414;6.776;2022-07-10T01:57:28;5.63;;;1.57;;
9098;SDS011;4585;51.414;6.776;2022-07-10T01:59:53;7.70;;;1.60;;
9098;SDS011;4585;51.414;6.776;2022-07-10T02:02:19;6.23;;;1.20;;
9098;SDS011;4585;51.414;6.776;2022-07-10T02:04:45;4.97;;;1.43;;
9098;SDS011;4585;51.414;6.776;2022-07-10T02:07:11;1.97;;;1.10;;
9098;SDS011;4585;51.414;6.776;2022-07-10T02:09:39;3.63;;;1.17;;
9098;SDS011;4585;51.414;6.776;2022-07-10T02:12:05;4.63;;;1.70;;
9098;SDS011;4585;51.414;6.776;2022-07-10T02:14:32;1.50;;;1.00;;
9098;SDS011;4585;51.414;6.776;2022-07-10T02:16:58;3.07;;;1.50;;
9098;SDS011;4585;51.414;6.776;2022-07-10T02:19:23;4.30;;;1.40;;
9098;SDS011;4585;51.414;6.776;2022-07-10T02:21:49;5.03;;;1.40;;
9098;SDS011;4585;51.414;6.776;2022-07-10T02:24:16;2.50;;;1.40;;
9098;SDS011;4585;51.414;6.776;2022-07-10T02:26:42;3.10;;;1.30;;
9098;SDS011;4585;51.414;6.776;2022-07-10T02:29:07;1.60;;;1.10;;
9098;SDS011;4585;51.414;6.776;2022-07-10T02:31:33;4.33;;;1.70;;
9098;SDS011;4585;51.414;6.776;2022-07-10T02:34:00;7.03;;;1.67;;
9098;SDS011;4585;51.414;6.776;2022-07-10T02:36:26;5.00;;;1.40;;
9098;SDS011;4585;51.414;6.776;2022-07-10T02:38:53;3.33;;;1.60;;
9098;SDS011;4585;51.414;6.776;2022-07-10T02:41:18;6.43;;;1.60;;
9098;SDS011;4585;51.414;6.776;2022-07-10T02:43:44;4.07;;;1.13;;
9098;SDS011;4585;51.414;6.776;2022-07-10T02:46:10;3.10;;;1.30;;
9098;SDS011;4585;51.414;6.776;2022-07-10T02:48:36;4.83;;;1.40;;
9098;SDS011;4585;51.414;6.776;2022-07-10T02:51:01;5.43;;;1.70;;
9098;SDS011;4585;51.414;6.776;2022-07-10T02:53:27;4.63;;;1.50;;
9098;SDS011;4585;51.414;6.776;2022-07-10T02:55:53;4.03;;;1.30;;
9098;SDS011;4585;51.414;6.776;2022-07-10T02:58:18;2.10;;;1.10;;
9098;SDS011;4585;51.414;6.776;2022-07-10T03:00:44;2.50;;;1.07;;
9098;SDS011;4585;51.414;6.776;2022-07-10T03:03:10;4.57;;;1.10;;
9098;SDS011;4585;51.414;6.776;2022-07-10T03:05:36;6.13;;;1.70;;
9098;SDS011;4585;51.414;6.776;2022-07-10T03:08:02;2.87;;;1.37;;
9098;SDS011;4585;51.414;6.776;2022-07-10T03:10:28;6.50;;;1.73;;
9098;SDS011;4585;51.414;6.776;2022-07-10T03:12:54;5.67;;;1.87;;
9098;SDS011;4585;51.414;6.776;2022-07-10T03:15:20;4.03;;;1.50;;
9098;SDS011;4585;51.414;6.776;2022-07-10T03:17:45;7.27;;;1.30;;
9098;SDS011;4585;51.414;6.776;2022-07-10T03:20:11;2.87;;;1.40;;
9098;SDS011;4585;51.414;6.776;2022-07-10T03:22:37;3.73;;;1.50;;
9098;SDS011;4585;51.414;6.776;2022-07-10T03:25:03;2.80;;;1.70;;
9098;SDS011;4585;51.414;6.776;2022-07-10T03:27:30;1.70;;;1.20;;
9098;SDS011;4585;51.414;6.776;2022-07-10T03:29:55;4.10;;;1.47;;
9098;SDS011;4585;51.414;6.776;2022-07-10T03:32:21;6.23;;;1.70;;
9098;SDS011;4585;51.414;6.776;2022-07-10T03:34:47;8.27;;;1.67;;
9098;SDS011;4585;51.414;6.776;2022-07-10T03:37:13;3.83;;;2.03;;
9098;SDS011;4585;51.414;6.776;2022-07-10T03:39:38;2.53;;;1.50;;
9098;SDS011;4585;51.414;6.776;2022-07-10T03:42:04;4.17;;;1.57;;
9098;SDS011;4585;51.414;6.776;2022-07-10T03:44:31;6.80;;;2.00;;
9098;SDS011;4585;51.414;6.776;2022-07-10T03:46:57;4.93;;;1.70;;
9098;SDS011;4585;51.414;6.776;2022-07-10T03:49:23;8.60;;;1.80;;
9098;SDS011;4585;51.414;6.776;2022-07-10T03:51:48;5.50;;;1.50;;
9098;SDS011;4585;51.414;6.776;2022-07-10T03:54:14;3.90;;;1.70;;
9098;SDS011;4585;51.414;6.776;2022-07-10T03:56:40;7.00;;;1.90;;
9098;SDS011;4585;51.414;6.776;2022-07-10T03:59:24;6.83;;;1.50;;
9098;SDS011;4585;51.414;6.776;2022-07-10T04:01:49;4.30;;;1.60;;
9098;SDS011;4585;51.414;6.776;2022-07-10T04:04:15;6.30;;;1.70;;
9098;SDS011;4585;51.414;6.776;2022-07-10T04:06:41;5.40;;;2.23;;
9098;SDS011;4585;51.414;6.776;2022-07-10T04:09:06;3.53;;;1.73;;
9098;SDS011;4585;51.414;6.776;2022-07-10T04:11:32;4.33;;;1.50;;
9098;SDS011;4585;51.414;6.776;2022-07-10T04:13:58;6.37;;;1.70;;
9098;SDS011;4585;51.414;6.776;2022-07-10T04:16:24;3.77;;;1.70;;
9098;SDS011;4585;51.414;6.776;2022-07-10T04:18:49;4.57;;;1.90;;
9098;SDS011;4585;51.414;6.776;2022-07-10T04:21:15;3.13;;;1.50;;
9098;SDS011;4585;51.414;6.776;2022-07-10T04:23:41;5.43;;;2.03;;
9098;SDS011;4585;51.414;6.776;2022-07-10T04:26:07;6.13;;;1.97;;
9098;SDS011;4585;51.414;6.776;2022-07-10T04:28:33;4.00;;;1.80;;
9098;SDS011;4585;51.414;6.776;2022-07-10T04:30:58;4.07;;;1.60;;
9098;SDS011;4585;51.414;6.776;2022-07-10T04:33:25;6.37;;;1.63;;
9098;SDS011;4585;51.414;6.776;2022-07-10T04:35:51;5.57;;;1.50;;
9098;SDS011;4585;51.414;6.776;2022-07-10T04:38:16;5.60;;;1.93;;
9098;SDS011;4585;51.414;6.776;2022-07-10T04:40:42;6.03;;;1.80;;
9098;SDS011;4585;51.414;6.776;2022-07-10T04:43:08;3.40;;;1.73;;
9098;SDS011;4585;51.414;6.776;2022-07-10T04:45:35;3.43;;;1.70;;
9098;SDS011;4585;51.414;6.776;2022-07-10T04:48:03;4.43;;;1.63;;
9098;SDS011;4585;51.414;6.776;2022-07-10T04:50:29;3.93;;;1.80;;
9098;SDS011;4585;51.414;6.776;2022-07-10T04:52:55;3.60;;;2.00;;
9098;SDS011;4585;51.414;6.776;2022-07-10T04:55:21;7.03;;;1.67;;
9098;SDS011;4585;51.414;6.776;2022-07-10T04:57:47;3.80;;;1.80;;
9098;SDS011;4585;51.414;6.776;2022-07-10T05:00:13;6.50;;;1.90;;
9098;SDS011;4585;51.414;6.776;2022-07-10T05:02:39;6.10;;;1.70;;
9098;SDS011;4585;51.414;6.776;2022-07-10T05:05:05;5.80;;;2.00;;
9098;SDS011;4585;51.414;6.776;2022-07-10T05:07:31;5.90;;;2.57;;
9098;SDS011;4585;51.414;6.776;2022-07-10T05:09:57;4.77;;;2.27;;
9098;SDS011;4585;51.414;6.776;2022-07-10T05:12:22;6.40;;;2.13;;
9098;SDS011;4585;51.414;6.776;2022-07-10T05:14:48;4.53;;;1.93;;
9098;SDS011;4585;51.414;6.776;2022-07-10T05:17:14;2.20;;;2.00;;
9098;SDS011;4585;51.414;6.776;2022-07-10T05:19:39;2.60;;;1.80;;
9098;SDS011;4585;51.414;6.776;2022-07-10T05:22:05;5.40;;;1.90;;
9098;SDS011;4585;51.414;6.776;2022-07-10T05:24:31;5.50;;;2.20;;
9098;SDS011;4585;51.414;6.776;2022-07-10T05:26:56;2.17;;;1.80;;
9098;SDS011;4585;51.414;6.776;2022-07-10T05:29:22;2.93;;;2.07;;
9098;SDS011;4585;51.414;6.776;2022-07-10T05:31:48;4.87;;;2.10;;
9098;SDS011;4585;51.414;6.776;2022-07-10T05:34:14;4.43;;;1.80;;
9098;SDS011;4585;51.414;6.776;2022-07-10T05:36:39;5.20;;;2.00;;
9098;SDS011;4585;51.414;6.776;2022-07-10T05:39:05;6.40;;;2.10;;
9098;SDS011;4585;51.414;6.776;2022-07-10T05:41:30;4.20;;;1.97;;
9098;SDS011;4585;51.414;6.776;2022-07-10T05:43:58;4.23;;;2.10;;
9098;SDS011;4585;51.414;6.776;2022-07-10T05:46:24;6.27;;;1.93;;
9098;SDS011;4585;51.414;6.776;2022-07-10T05:48:50;5.77;;;2.23;;
9098;SDS011;4585;51.414;6.776;2022-07-10T05:51:16;5.77;;;1.90;;
9098;SDS011;4585;51.414;6.776;2022-07-10T05:53:42;3.43;;;1.40;;
9098;SDS011;4585;51.414;6.776;2022-07-10T05:56:07;4.87;;;1.67;;
9098;SDS011;4585;51.414;6.776;2022-07-10T05:58:33;7.50;;;1.63;;
9098;SDS011;4585;51.414;6.776;2022-07-10T06:00:59;7.43;;;1.57;;
9098;SDS011;4585;51.414;6.776;2022-07-10T06:03:25;6.40;;;1.93;;
9098;SDS011;4585;51.414;6.776;2022-07-10T06:05:51;3.40;;;1.83;;
9098;SDS011;4585;51.414;6.776;2022-07-10T06:08:17;6.37;;;1.60;;
9098;SDS011;4585;51.414;6.776;2022-07-10T06:10:43;3.23;;;1.83;;
9098;SDS011;4585;51.414;6.776;2022-07-10T06:13:09;7.50;;;1.97;;
9098;SDS011;4585;51.414;6.776;2022-07-10T06:15:35;6.27;;;1.63;;
9098;SDS011;4585;51.414;6.776;2022-07-10T06:18:01;4.60;;;1.80;;
9098;SDS011;4585;51.414;6.776;2022-07-10T06:20:27;5.03;;;1.73;;
9098;SDS011;4585;51.414;6.776;2022-07-10T06:22:52;6.80;;;1.80;;
9098;SDS011;4585;51.414;6.776;2022-07-10T06:25:18;3.73;;;1.50;;
9098;SDS011;4585;51.414;6.776;2022-07-10T06:27:44;3.57;;;1.80;;
9098;SDS011;4585;51.414;6.776;2022-07-10T06:30:10;5.37;;;1.53;;
9098;SDS011;4585;51.414;6.776;2022-07-10T06:32:36;5.37;;;1.60;;
9098;SDS011;4585;51.414;6.776;2022-07-10T06:35:02;5.23;;;1.43;;
9098;SDS011;4585;51.414;6.776;2022-07-10T06:37:29;3.83;;;1.40;;
9098;SDS011;4585;51.414;6.776;2022-07-10T06:39:55;2.73;;;1.60;;
9098;SDS011;4585;51.414;6.776;2022-07-10T06:42:21;2.67;;;1.40;;
9098;SDS011;4585;51.414;6.776;2022-07-10T06:44:46;6.40;;;1.83;;
9098;SDS011;4585;51.414;6.776;2022-07-10T06:47:13;4.97;;;1.60;;
9098;SDS011;4585;51.414;6.776;2022-07-10T06:49:59;5.40;;;1.67;;
9098;SDS011;4585;51.414;6.776;2022-07-10T06:52:26;3.30;;;1.50;;
9098;SDS011;4585;51.414;6.776;2022-07-10T06:54:52;5.47;;;1.57;;
9098;SDS011;4585;51.414;6.776;2022-07-10T06:57:18;6.43;;;1.63;;
9098;SDS011;4585;51.414;6.776;2022-07-10T06:59:44;3.67;;;1.60;;
9098;SDS011;4585;51.414;6.776;2022-07-10T07:02:11;4.47;;;1.47;;
9098;SDS011;4585;51.414;6.776;2022-07-10T07:04:36;2.63;;;1.67;;
9098;SDS011;4585;51.414;6.776;2022-07-10T07:07:02;5.00;;;1.60;;
9098;SDS011;4585;51.414;6.776;2022-07-10T07:09:28;4.30;;;1.60;;
9098;SDS011;4585;51.414;6.776;2022-07-10T07:11:54;6.33;;;1.50;;
9098;SDS011;4585;51.414;6.776;2022-07-10T07:14:20;2.90;;;1.23;;
9098;SDS011;4585;51.414;6.776;2022-07-10T07:16:46;3.67;;;1.53;;
9098;SDS011;4585;51.414;6.776;2022-07-10T07:19:22;6.17;;;1.83;;
9098;SDS011;4585;51.414;6.776;2022-07-10T07:21:56;2.60;;;1.63;;
9098;SDS011;4585;51.414;6.776;2022-07-10T07:24:41;1.80;;;1.20;;
9098;SDS011;4585;51.414;6.776;2022-07-10T07:27:07;5.10;;;1.83;;
9098;SDS011;4585;51.414;6.776;2022-07-10T07:29:33;3.67;;;1.50;;
9098;SDS011;4585;51.414;6.776;2022-07-10T07:31:59;4.67;;;2.00;;
9098;SDS011;4585;51.414;6.776;2022-07-10T07:34:25;3.83;;;1.47;;
9098;SDS011;4585;51.414;6.776;2022-07-10T07:36:51;3.37;;;1.50;;
9098;SDS011;4585;51.414;6.776;2022-07-10T07:39:16;3.03;;;1.60;;
9098;SDS011;4585;51.414;6.776;2022-07-10T07:41:42;4.23;;;1.47;;
9098;SDS011;4585;51.414;6.776;2022-07-10T07:44:08;3.70;;;1.30;;
9098;SDS011;4585;51.414;6.776;2022-07-10T07:46:33;4.00;;;1.90;;
9098;SDS011;4585;51.414;6.776;2022-07-10T07:48:59;3.40;;;1.50;;
9098;SDS011;4585;51.414;6.776;2022-07-10T07:51:25;4.73;;;1.70;;
9098;SDS011;4585;51.414;6.776;2022-07-10T07:53:51;4.30;;;1.90;;
9098;SDS011;4585;51.414;6.776;2022-07-10T07:56:16;4.83;;;1.70;;
9098;SDS011;4585;51.414;6.776;2022-07-10T07:58:42;3.73;;;1.47;;
9098;SDS011;4585;51.414;6.776;2022-07-10T08:01:08;6.53;;;2.30;;
9098;SDS011;4585;51.414;6.776;2022-07-10T08:03:33;4.73;;;1.90;;
9098;SDS011;4585;51.414;6.776;2022-07-10T08:05:59;6.37;;;1.90;;
9098;SDS011;4585;51.414;6.776;2022-07-10T08:08:26;3.90;;;1.60;;
9098;SDS011;4585;51.414;6.776;2022-07-10T08:10:51;4.17;;;1.80;;
9098;SDS011;4585;51.414;6.776;2022-07-10T08:13:17;9.10;;;1.70;;
9098;SDS011;4585;51.414;6.776;2022-07-10T08:15:43;7.63;;;2.03;;
9098;SDS011;4585;51.414;6.776;2022-07-10T08:18:09;3.20;;;1.90;;
9098;SDS011;4585;51.414;6.776;2022-07-10T08:20:34;7.30;;;2.10;;
9098;SDS011;4585;51.414;6.776;2022-07-10T08:23:00;3.20;;;1.83;;
9098;SDS011;4585;51.414;6.776;2022-07-10T08:25:29;5.37;;;2.50;;
9098;SDS011;4585;51.414;6.776;2022-07-10T08:27:59;9.83;;;2.13;;
9098;SDS011;4585;51.414;6.776;2022-07-10T08:30:26;6.73;;;2.30;;
9098;SDS011;4585;51.414;6.776;2022-07-10T08:32:51;5.63;;;2.30;;
9098;SDS011;4585;51.414;6.776;2022-07-10T08:35:17;5.73;;;2.17;;
9098;SDS011;4585;51.414;6.776;2022-07-10T08:37:43;5.80;;;2.23;;
9098;SDS011;4585;51.414;6.776;2022-07-10T08:40:10;3.43;;;2.00;;
9098;SDS011;4585;51.414;6.776;2022-07-10T08:42:38;5.27;;;2.30;;
9098;SDS011;4585;51.414;6.776;2022-07-10T08:45:05;5.70;;;2.47;;
9098;SDS011;4585;51.414;6.776;2022-07-10T08:47:35;4.27;;;2.50;;
9098;SDS011;4585;51.414;6.776;2022-07-10T08:50:02;5.20;;;2.30;;
9098;SDS011;4585;51.414;6.776;2022-07-10T08:52:38;5.90;;;2.70;;
9098;SDS011;4585;51.414;6.776;2022-07-10T08:55:15;4.70;;;2.40;;
9098;SDS011;4585;51.414;6.776;2022-07-10T08:57:41;2.67;;;2.17;;
9098;SDS011;4585;51.414;6.776;2022-07-10T09:00:08;7.13;;;2.63;;
9098;SDS011;4585;51.414;6.776;2022-07-10T09:02:34;10.43;;;2.80;;
9098;SDS011;4585;51.414;6.776;2022-07-10T09:05:00;6.87;;;2.57;;
9098;SDS011;4585;51.414;6.776;2022-07-10T09:07:34;9.13;;;2.40;;
9098;SDS011;4585;51.414;6.776;2022-07-10T09:10:08;6.63;;;2.60;;
9098;SDS011;4585;51.414;6.776;2022-07-10T09:15:33;4.43;;;2.30;;
9098;SDS011;4585;51.414;6.776;2022-07-10T09:18:00;6.67;;;2.50;;
9098;SDS011;4585;51.414;6.776;2022-07-10T09:20:33;7.80;;;2.80;;
9098;SDS011;4585;51.414;6.776;2022-07-10T09:25:49;5.53;;;2.50;;
9098;SDS011;4585;51.414;6.776;2022-07-10T09:28:17;8.17;;;2.90;;
9098;SDS011;4585;51.414;6.776;2022-07-10T09:30:44;6.20;;;3.07;;
9098;SDS011;4585;51.414;6.776;2022-07-10T09:41:11;7.43;;;2.33;;
9098;SDS011;4585;51.414;6.776;2022-07-10T09:46:20;4.17;;;2.63;;
9098;SDS011;4585;51.414;6.776;2022-07-10T09:48:47;9.30;;;3.03;;
9098;SDS011;4585;51.414;6.776;2022-07-10T09:51:25;6.50;;;2.70;;
9098;SDS011;4585;51.414;6.776;2022-07-10T09:53:53;7.50;;;3.10;;
9098;SDS011;4585;51.414;6.776;2022-07-10T09:56:18;6.10;;;2.47;;
9098;SDS011;4585;51.414;6.776;2022-07-10T09:58:44;4.63;;;2.70;;
9098;SDS011;4585;51.414;6.776;2022-07-10T10:01:11;4.43;;;2.13;;
9098;SDS011;4585;51.414;6.776;2022-07-10T10:03:38;6.80;;;2.30;;
9098;SDS011;4585;51.414;6.776;2022-07-10T10:06:11;4.07;;;2.27;;
9098;SDS011;4585;51.414;6.776;2022-07-10T10:11:21;2.07;;;1.80;;
9098;SDS011;4585;51.414;6.776;2022-07-10T10:13:51;3.80;;;1.70;;
9098;SDS011;4585;51.414;6.776;2022-07-10T10:16:18;2.73;;;1.50;;
9098;SDS011;4585;51.414;6.776;2022-07-10T10:18:46;2.30;;;1.70;;
9098;SDS011;4585;51.414;6.776;2022-07-10T10:21:30;1.50;;;1.40;;
9098;SDS011;4585;51.414;6.776;2022-07-10T10:23:57;3.60;;;1.50;;
9098;SDS011;4585;51.414;6.776;2022-07-10T10:26:25;2.40;;;2.00;;
9098;SDS011;4585;51.414;6.776;2022-07-10T10:28:52;3.07;;;1.90;;
9098;SDS011;4585;51.414;6.776;2022-07-10T10:31:20;1.73;;;1.60;;
9098;SDS011;4585;51.414;6.776;2022-07-10T10:33:47;3.13;;;2.17;;
9098;SDS011;4585;51.414;6.776;2022-07-10T10:41:54;2.80;;;1.90;;
9098;SDS011;4585;51.414;6.776;2022-07-10T10:44:20;2.70;;;2.07;;
9098;SDS011;4585;51.414;6.776;2022-07-10T10:49:18;2.57;;;1.80;;
9098;SDS011;4585;51.414;6.776;2022-07-10T10:54:31;3.67;;;2.10;;
9098;SDS011;4585;51.414;6.776;2022-07-10T10:57:22;3.33;;;1.77;;
9098;SDS011;4585;51.414;6.776;2022-07-10T11:00:11;4.53;;;1.80;;
9098;SDS011;4585;51.414;6.776;2022-07-10T11:02:40;3.37;;;1.30;;
9098;SDS011;4585;51.414;6.776;2022-07-10T11:10:27;1.90;;;1.70;;
9098;SDS011;4585;51.414;6.776;2022-07-10T11:13:02;1.70;;;1.60;;
9098;SDS011;4585;51.414;6.776;2022-07-10T11:15:29;4.07;;;1.60;;
9098;SDS011;4585;51.414;6.776;2022-07-10T11:17:58;3.20;;;1.67;;
9098;SDS011;4585;51.414;6.776;2022-07-10T11:20:37;1.80;;;1.70;;
9098;SDS011;4585;51.414;6.776;2022-07-10T11:25:59;2.10;;;1.90;;
9098;SDS011;4585;51.414;6.776;2022-07-10T11:31:13;2.53;;;1.90;;
9098;SDS011;4585;51.414;6.776;2022-07-10T11:33:40;2.27;;;1.83;;
9098;SDS011;4585;51.414;6.776;2022-07-10T11:36:28;5.93;;;1.90;;
9098;SDS011;4585;51.414;6.776;2022-07-10T11:39:00;4.33;;;1.73;;
9098;SDS011;4585;51.414;6.776;2022-07-10T11:41:30;3.90;;;1.90;;
9098;SDS011;4585;51.414;6.776;2022-07-10T11:44:01;3.83;;;2.00;;
9098;SDS011;4585;51.414;6.776;2022-07-10T11:46:32;2.27;;;1.50;;
9098;SDS011;4585;51.414;6.776;2022-07-10T11:49:02;2.10;;;1.77;;
9098;SDS011;4585;51.414;6.776;2022-07-10T11:51:31;5.30;;;2.07;;
9098;SDS011;4585;51.414;6.776;2022-07-10T11:56:25;2.83;;;1.83;;
9098;SDS011;4585;51.414;6.776;2022-07-10T11:59:02;1.60;;;1.50;;
9098;SDS011;4585;51.414;6.776;2022-07-10T12:01:29;1.80;;;1.50;;
9098;SDS011;4585;51.414;6.776;2022-07-10T12:06:28;5.83;;;1.77;;
9098;SDS011;4585;51.414;6.776;2022-07-10T12:08:55;3.33;;;1.57;;
9098;SDS011;4585;51.414;6.776;2022-07-10T12:11:25;5.87;;;1.97;;
9098;SDS011;4585;51.414;6.776;2022-07-10T12:13:51;4.17;;;2.17;;
9098;SDS011;4585;51.414;6.776;2022-07-10T12:16:19;3.10;;;1.73;;
9098;SDS011;4585;51.414;6.776;2022-07-10T12:18:46;6.47;;;2.03;;
9098;SDS011;4585;51.414;6.776;2022-07-10T12:21:13;5.37;;;2.07;;
9098;SDS011;4585;51.414;6.776;2022-07-10T12:23:40;2.50;;;2.10;;
9098;SDS011;4585;51.414;6.776;2022-07-10T12:26:09;8.33;;;5.87;;
9098;SDS011;4585;51.414;6.776;2022-07-10T12:28:52;6.93;;;6.23;;
9098;SDS011;4585;51.414;6.776;2022-07-10T12:31:25;5.07;;;2.60;;
9098;SDS011;4585;51.414;6.776;2022-07-10T12:33:52;5.00;;;2.37;;
9098;SDS011;4585;51.414;6.776;2022-07-10T12:36:22;8.03;;;2.70;;
9098;SDS011;4585;51.414;6.776;2022-07-10T12:38:55;4.53;;;2.67;;
9098;SDS011;4585;51.414;6.776;2022-07-10T12:41:25;8.67;;;3.17;;
9098;SDS011;4585;51.414;6.776;2022-07-10T12:43:51;3.53;;;2.40;;
9098;SDS011;4585;51.414;6.776;2022-07-10T12:46:18;4.87;;;2.90;;
9098;SDS011;4585;51.414;6.776;2022-07-10T12:51:47;8.40;;;3.63;;
9098;SDS011;4585;51.414;6.776;2022-07-10T12:57:00;5.13;;;2.73;;
9098;SDS011;4585;51.414;6.776;2022-07-10T12:59:27;3.37;;;2.30;;
9098;SDS011;4585;51.414;6.776;2022-07-10T13:01:54;2.13;;;1.90;;
9098;SDS011;4585;51.414;6.776;2022-07-10T13:04:23;8.43;;;2.00;;
9098;SDS011;4585;51.414;6.776;2022-07-10T13:06:52;3.33;;;2.40;;
9098;SDS011;4585;51.414;6.776;2022-07-10T13:09:24;3.67;;;2.13;;
9098;SDS011;4585;51.414;6.776;2022-07-10T13:11:51;3.90;;;2.00;;
9098;SDS011;4585;51.414;6.776;2022-07-10T13:14:18;2.67;;;1.97;;
9098;SDS011;4585;51.414;6.776;2022-07-10T13:16:45;3.97;;;2.00;;
9098;SDS011;4585;51.414;6.776;2022-07-10T13:19:11;3.67;;;1.80;;
9098;SDS011;4585;51.414;6.776;2022-07-10T13:21:37;2.63;;;1.30;;
9098;SDS011;4585;51.414;6.776;2022-07-10T13:24:03;2.50;;;1.60;;
9098;SDS011;4585;51.414;6.776;2022-07-10T13:26:30;4.60;;;1.93;;
9098;SDS011;4585;51.414;6.776;2022-07-10T13:28:57;3.40;;;1.80;;
9098;SDS011;4585;51.414;6.776;2022-07-10T13:31:24;1.70;;;1.53;;
9098;SDS011;4585;51.414;6.776;2022-07-10T13:33:49;4.33;;;1.40;;
9098;SDS011;4585;51.414;6.776;2022-07-10T13:36:15;4.13;;;1.83;;
9098;SDS011;4585;51.414;6.776;2022-07-10T13:38:41;6.93;;;1.50;;
9098;SDS011;4585;51.414;6.776;2022-07-10T13:41:07;3.47;;;1.63;;
9098;SDS011;4585;51.414;6.776;2022-07-10T13:43:33;2.00;;;1.40;;
9098;SDS011;4585;51.414;6.776;2022-07-10T13:46:00;2.23;;;1.30;;
9098;SDS011;4585;51.414;6.776;2022-07-10T13:48:27;3.80;;;1.50;;
9098;SDS011;4585;51.414;6.776;2022-07-10T13:50:53;2.53;;;1.30;;
9098;SDS011;4585;51.414;6.776;2022-07-10T13:53:19;2.00;;;1.20;;
9098;SDS011;4585;51.414;6.776;2022-07-10T13:55:45;2.53;;;1.43;;
9098;SDS011;4585;51.414;6.776;2022-07-10T13:58:12;1.40;;;1.30;;
9098;SDS011;4585;51.414;6.776;2022-07-10T14:00:38;1.20;;;1.10;;
9098;SDS011;4585;51.414;6.776;2022-07-10T14:03:04;2.20;;;1.20;;
9098;SDS011;4585;51.414;6.776;2022-07-10T14:05:31;1.63;;;1.30;;
9098;SDS011;4585;51.414;6.776;2022-07-10T14:07:57;2.97;;;1.37;;
9098;SDS011;4585;51.414;6.776;2022-07-10T14:10:23;1.87;;;1.30;;
9098;SDS011;4585;51.414;6.776;2022-07-10T14:12:49;1.80;;;1.30;;
9098;SDS011;4585;51.414;6.776;2022-07-10T14:15:17;3.43;;;1.43;;
9098;SDS011;4585;51.414;6.776;2022-07-10T14:17:43;1.30;;;1.13;;
9098;SDS011;4585;51.414;6.776;2022-07-10T14:20:09;2.60;;;1.33;;
9098;SDS011;4585;51.414;6.776;2022-07-10T14:22:36;2.60;;;1.60;;
9098;SDS011;4585;51.414;6.776;2022-07-10T14:25:02;1.87;;;1.40;;
9098;SDS011;4585;51.414;6.776;2022-07-10T14:27:29;2.13;;;1.27;;
9098;SDS011;4585;51.414;6.776;2022-07-10T14:29:56;3.70;;;1.20;;
9098;SDS011;4585;51.414;6.776;2022-07-10T14:32:22;1.80;;;1.40;;
9098;SDS011;4585;51.414;6.776;2022-07-10T14:34:48;1.63;;;1.20;;
9098;SDS011;4585;51.414;6.776;2022-07-10T14:37:14;1.83;;;1.20;;
9098;SDS011;4585;51.414;6.776;2022-07-10T14:39:39;1.47;;;1.23;;
9098;SDS011;4585;51.414;6.776;2022-07-10T14:42:05;2.40;;;1.10;;
9098;SDS011;4585;51.414;6.776;2022-07-10T14:44:34;2.13;;;1.10;;
9098;SDS011;4585;51.414;6.776;2022-07-10T14:47:00;3.43;;;1.30;;
9098;SDS011;4585;51.414;6.776;2022-07-10T14:49:26;2.07;;;1.27;;
9098;SDS011;4585;51.414;6.776;2022-07-10T14:51:52;2.40;;;1.40;;
9098;SDS011;4585;51.414;6.776;2022-07-10T14:54:19;1.63;;;1.20;;
9098;SDS011;4585;51.414;6.776;2022-07-10T14:56:45;1.40;;;1.20;;
9098;SDS011;4585;51.414;6.776;2022-07-10T14:59:11;1.93;;;1.30;;
9098;SDS011;4585;51.414;6.776;2022-07-10T15:01:36;1.47;;;1.37;;
9098;SDS011;4585;51.414;6.776;2022-07-10T15:04:02;2.03;;;1.30;;
9098;SDS011;4585;51.414;6.776;2022-07-10T15:06:28;1.53;;;1.20;;
9098;SDS011;4585;51.414;6.776;2022-07-10T15:08:53;1.63;;;1.27;;
9098;SDS011;4585;51.414;6.776;2022-07-10T15:11:19;1.93;;;1.50;;
9098;SDS011;4585;51.414;6.776;2022-07-10T15:13:47;1.47;;;1.30;;
9098;SDS011;4585;51.414;6.776;2022-07-10T15:16:18;2.90;;;1.60;;
9098;SDS011;4585;51.414;6.776;2022-07-10T15:18:43;1.80;;;1.27;;
9098;SDS011;4585;51.414;6.776;2022-07-10T15:21:10;4.53;;;1.30;;
9098;SDS011;4585;51.414;6.776;2022-07-10T15:23:36;2.53;;;1.37;;
9098;SDS011;4585;51.414;6.776;2022-07-10T15:26:02;4.23;;;1.33;;
9098;SDS011;4585;51.414;6.776;2022-07-10T15:28:29;3.63;;;1.63;;
9098;SDS011;4585;51.414;6.776;2022-07-10T15:30:55;3.57;;;1.60;;
9098;SDS011;4585;51.414;6.776;2022-07-10T15:33:21;1.77;;;1.30;;
9098;SDS011;4585;51.414;6.776;2022-07-10T15:35:47;1.67;;;1.33;;
9098;SDS011;4585;51.414;6.776;2022-07-10T15:38:13;3.93;;;1.70;;
9098;SDS011;4585;51.414;6.776;2022-07-10T15:40:38;2.53;;;1.60;;
9098;SDS011;4585;51.414;6.776;2022-07-10T15:43:04;1.93;;;1.27;;
9098;SDS011;4585;51.414;6.776;2022-07-10T15:45:30;3.33;;;1.27;;
9098;SDS011;4585;51.414;6.776;2022-07-10T15:47:57;1.60;;;1.10;;
9098;SDS011;4585;51.414;6.776;2022-07-10T15:50:22;3.03;;;1.43;;
9098;SDS011;4585;51.414;6.776;2022-07-10T15:52:48;1.43;;;1.30;;
9098;SDS011;4585;51.414;6.776;2022-07-10T15:55:14;3.77;;;1.30;;
9098;SDS011;4585;51.414;6.776;2022-07-10T15:57:40;2.20;;;1.40;;
9098;SDS011;4585;51.414;6.776;2022-07-10T16:00:06;2.70;;;1.50;;
9098;SDS011;4585;51.414;6.776;2022-07-10T16:02:34;2.43;;;1.30;;
9098;SDS011;4585;51.414;6.776;2022-07-10T16:05:00;1.83;;;1.37;;